Time;durP1;ratioP1;P1;durP2;ratioP2;P2;SDS_P1;SDS_P2;PMS_P1;PMS_P2;Temp;Humidity;BMP_temperature;BMP_pressure;BME280_temperature;BME280_humidity;BME280_pressure;Samples;Min_cycle;Max_cycle;Signal;HPM_P1;HPM_P2
2022/09/12 03:02:33;;;;;;;;;;;23.40;47.10;;;;;;4960803;23;44892;-62
2022/09/12 03:05:18;;;;;;;;;;;23.40;47.10;;;;;;4926574;28;46344;-61
2022/09/12 03:07:56;;;;;;;;;;;23.40;47.20;;;;;;4930957;28;45115;-61
2022/09/12 03:10:28;;;;;;;;;;;23.40;47.10;;;;;;4944378;28;45464;-63
2022/09/12 03:13:14;;;;;;;;;;;23.40;47.20;;;;;;4945411;28;45067;-62
2022/09/12 03:16:00;;;;;;;;;;;23.40;47.10;;;;;;4926202;28;44854;-63
2022/09/12 03:18:28;;;;;;;;;;;23.40;47.10;;;;;;4905433;28;45174;-62
2022/09/12 03:21:01;;;;;;;;;;;23.40;47.20;;;;;;4952098;28;45207;-62
2022/09/12 03:23:32;;;;;;;;;;;23.40;47.10;;;;;;4926081;28;46166;-61
2022/09/12 03:25:58;;;;;;;;;;;23.40;47.10;;;;;;4943959;28;44788;-61
2022/09/12 03:28:24;;;;;;;;;;;23.40;47.10;;;;;;4936958;28;44965;-63
2022/09/12 03:30:53;;;;;;;;;;;23.40;47.10;;;;;;4916078;28;45098;-62
2022/09/12 03:33:19;;;;;;;;;;;23.40;47.10;;;;;;4936771;28;46411;-62
2022/09/12 03:35:45;;;;;;;;;;;23.40;47.10;;;;;;4944828;28;44971;-61
2022/09/12 03:38:11;;;;;;;;;;;23.40;47.10;;;;;;4948745;28;45114;-62
2022/09/12 03:40:36;;;;;;;;;;;23.40;47.10;;;;;;4944216;28;44889;-62
2022/09/12 03:43:02;;;;;;;;;;;23.40;47.10;;;;;;4930391;28;46119;-63
2022/09/12 03:45:28;;;;;;;;;;;23.40;47.10;;;;;;4944610;28;45804;-62
2022/09/12 03:47:53;;;;;;;;;;;23.40;47.10;;;;;;4933117;28;44778;-62
2022/09/12 03:50:19;;;;;;;;;;;23.40;47.10;;;;;;4946697;28;45578;-63
2022/09/12 03:52:44;;;;;;;;;;;23.40;47.10;;;;;;4939017;28;45269;-63
2022/09/12 03:55:10;;;;;;;;;;;23.40;47.10;;;;;;4943209;28;45029;-62
2022/09/12 03:57:35;;;;;;;;;;;23.40;47.10;;;;;;4943210;28;45247;-62
2022/09/12 04:00:01;;;;;;;;;;;23.40;47.10;;;;;;4933807;28;45292;-63
2022/09/12 04:02:27;;;;;;;;;;;23.40;47.10;;;;;;4940919;28;45050;-62
2022/09/12 04:04:52;;;;;;;;;;;23.40;47.10;;;;;;4950980;28;45500;-63
2022/09/12 04:07:18;;;;;;;;;;;23.40;47.10;;;;;;4923399;28;45144;-63
2022/09/12 04:09:43;;;;;;;;;;;23.40;47.10;;;;;;4931031;28;44906;-63
2022/09/12 04:12:09;;;;;;;;;;;23.40;47.10;;;;;;4941566;28;45254;-63
2022/09/12 04:14:35;;;;;;;;;;;23.40;47.10;;;;;;4931565;28;45183;-64
2022/09/12 04:17:00;;;;;;;;;;;23.40;47.10;;;;;;4943426;28;44923;-62
2022/09/12 04:19:26;;;;;;;;;;;23.40;47.10;;;;;;4944147;28;44900;-63
2022/09/12 04:21:51;;;;;;;;;;;23.40;47.00;;;;;;4939484;28;46129;-62
2022/09/12 04:24:17;;;;;;;;;;;23.40;47.00;;;;;;4935281;28;45015;-62
2022/09/12 04:26:42;;;;;;;;;;;23.40;47.10;;;;;;4942235;28;45530;-63
2022/09/12 04:29:09;;;;;;;;;;;23.40;47.60;;;;;;4947578;28;45120;-62
2022/09/12 04:31:35;;;;;;;;;;;23.40;47.00;;;;;;4929026;28;46151;-63
2022/09/12 04:34:00;;;;;;;;;;;23.30;47.00;;;;;;4938509;28;45069;-63
2022/09/12 04:36:26;;;;;;;;;;;23.40;47.10;;;;;;4923285;28;44970;-63
2022/09/12 04:38:52;;;;;;;;;;;23.40;47.10;;;;;;4926701;28;45122;-61
2022/09/12 04:41:19;;;;;;;;;;;23.30;47.00;;;;;;4924535;28;45921;-62
2022/09/12 04:43:45;;;;;;;;;;;23.30;47.00;;;;;;4945635;28;45050;-62
2022/09/12 04:46:11;;;;;;;;;;;23.30;47.00;;;;;;4944922;28;46260;-63
2022/09/12 04:48:36;;;;;;;;;;;23.30;47.00;;;;;;4947622;28;45191;-62
2022/09/12 04:51:06;;;;;;;;;;;23.30;47.00;;;;;;4943627;28;46118;-62
2022/09/12 04:53:32;;;;;;;;;;;23.30;47.10;;;;;;4913840;28;45004;-65
2022/09/12 04:56:00;;;;;;;;;;;23.30;47.10;;;;;;4943305;28;45371;-61
2022/09/12 04:58:26;;;;;;;;;;;23.30;47.10;;;;;;4925921;28;45214;-63
2022/09/12 05:00:51;;;;;;;;;;;23.30;47.10;;;;;;4939590;28;46191;-63
2022/09/12 05:03:17;;;;;;;;;;;23.30;47.10;;;;;;4944038;28;45201;-63
2022/09/12 05:05:42;;;;;;;;;;;23.30;47.10;;;;;;4922041;28;45420;-62
2022/09/12 05:08:08;;;;;;;;;;;23.30;47.10;;;;;;4947794;28;45367;-64
2022/09/12 05:10:33;;;;;;;;;;;23.30;47.00;;;;;;4950625;28;45701;-63
2022/09/12 05:12:59;;;;;;;;;;;23.30;47.00;;;;;;4948689;28;44927;-64
2022/09/12 05:15:24;;;;;;;;;;;23.30;47.00;;;;;;4948704;28;45162;-63
2022/09/12 05:17:50;;;;;;;;;;;23.30;47.00;;;;;;4948909;28;44742;-63
2022/09/12 05:20:16;;;;;;;;;;;23.30;47.00;;;;;;4953921;28;46152;-65
2022/09/12 05:22:41;;;;;;;;;;;23.30;47.00;;;;;;4935174;28;45328;-64
2022/09/12 05:25:07;;;;;;;;;;;23.30;47.00;;;;;;4933232;28;44697;-64
2022/09/12 05:27:33;;;;;;;;;;;23.30;47.60;;;;;;4945303;28;44891;-63
2022/09/12 05:29:58;;;;;;;;;;;23.30;47.00;;;;;;4949927;28;45160;-64
2022/09/12 05:32:24;;;;;;;;;;;23.30;47.00;;;;;;4927497;28;44988;-63
2022/09/12 05:34:49;;;;;;;;;;;23.30;47.00;;;;;;4947949;28;44960;-63
2022/09/12 05:37:15;;;;;;;;;;;23.30;47.10;;;;;;4943132;28;45703;-62
2022/09/12 05:39:40;;;;;;;;;;;23.30;47.00;;;;;;4945365;28;45472;-63
2022/09/12 05:42:06;;;;;;;;;;;23.30;47.00;;;;;;4947298;28;45870;-65
2022/09/12 05:44:32;;;;;;;;;;;23.30;47.00;;;;;;4947163;28;45486;-64
2022/09/12 05:46:57;;;;;;;;;;;23.30;47.10;;;;;;4948352;28;45504;-64
2022/09/12 05:49:23;;;;;;;;;;;23.30;47.70;;;;;;4948059;28;45016;-64
2022/09/12 05:51:49;;;;;;;;;;;23.30;47.10;;;;;;4945178;28;44925;-63
2022/09/12 05:54:16;;;;;;;;;;;23.30;47.10;;;;;;4948318;28;44593;-64
2022/09/12 05:56:42;;;;;;;;;;;23.20;47.00;;;;;;4948873;28;45036;-63
2022/09/12 05:59:18;;;;;;;;;;;23.30;47.10;;;;;;4948168;28;45263;-62
2022/09/12 06:01:43;;;;;;;;;;;23.20;47.10;;;;;;4916045;28;45371;-63
2022/09/12 06:04:09;;;;;;;;;;;23.20;47.00;;;;;;4942837;28;45087;-63
2022/09/12 06:06:35;;;;;;;;;;;23.30;47.00;;;;;;4928377;28;45072;-63
2022/09/12 06:09:01;;;;;;;;;;;23.30;47.00;;;;;;4940583;28;46551;-62
2022/09/12 06:11:28;;;;;;;;;;;23.40;47.00;;;;;;4939732;28;45636;-64
2022/09/12 06:13:54;;;;;;;;;;;23.40;47.00;;;;;;4930852;28;45102;-64
2022/09/12 06:16:20;;;;;;;;;;;23.40;46.90;;;;;;4928774;28;45122;-62
2022/09/12 06:18:50;;;;;;;;;;;23.40;46.90;;;;;;4947254;28;45564;-66
2022/09/12 06:21:16;;;;;;;;;;;23.40;46.80;;;;;;4923616;28;45829;-64
2022/09/12 06:23:41;;;;;;;;;;;23.50;46.80;;;;;;4943025;28;45080;-64
2022/09/12 06:26:08;;;;;;;;;;;23.40;46.80;;;;;;4920577;28;45669;-64
2022/09/12 06:28:34;;;;;;;;;;;23.50;46.90;;;;;;4937636;28;45183;-63
2022/09/12 06:31:00;;;;;;;;;;;23.50;46.80;;;;;;4946059;28;45045;-63
2022/09/12 06:33:26;;;;;;;;;;;23.50;46.80;;;;;;4949693;28;44940;-63
2022/09/12 06:35:51;;;;;;;;;;;23.50;46.70;;;;;;4946421;28;44937;-62
2022/09/12 06:38:17;;;;;;;;;;;23.60;46.90;;;;;;4944836;28;47342;-66
2022/09/12 06:40:43;;;;;;;;;;;23.60;46.80;;;;;;4947654;28;44831;-63
2022/09/12 06:43:10;;;;;;;;;;;23.60;46.80;;;;;;4943864;28;44964;-63
2022/09/12 06:45:35;;;;;;;;;;;23.60;46.80;;;;;;4943800;28;46379;-64
2022/09/12 06:48:01;;;;;;;;;;;23.60;46.80;;;;;;4927092;28;46154;-62
2022/09/12 06:50:27;;;;;;;;;;;23.60;46.80;;;;;;4931283;28;44952;-62
2022/09/12 06:52:52;;;;;;;;;;;23.60;46.80;;;;;;4939270;28;44792;-61
2022/09/12 06:55:18;;;;;;;;;;;23.60;46.80;;;;;;4943341;28;45018;-63
2022/09/12 06:57:43;;;;;;;;;;;23.60;46.80;;;;;;4943837;28;46039;-61
2022/09/12 07:00:09;;;;;;;;;;;23.70;46.80;;;;;;4945282;28;44723;-63
2022/09/12 07:02:34;;;;;;;;;;;23.70;46.70;;;;;;4943432;28;44711;-64
2022/09/12 07:05:00;;;;;;;;;;;23.60;46.80;;;;;;4948192;28;45236;-63
2022/09/12 07:07:25;;;;;;;;;;;23.60;46.90;;;;;;4948827;28;45812;-65
2022/09/12 07:09:51;;;;;;;;;;;23.60;46.90;;;;;;4952640;28;44717;-62
2022/09/12 07:12:17;;;;;;;;;;;23.60;46.90;;;;;;4945375;28;44974;-62
2022/09/12 07:14:42;;;;;;;;;;;23.60;47.00;;;;;;4939311;28;45145;-62
2022/09/12 07:17:08;;;;;;;;;;;23.60;47.00;;;;;;4945593;28;45982;-63
2022/09/12 07:19:33;;;;;;;;;;;23.60;46.90;;;;;;4939602;28;45227;-61
2022/09/12 07:21:59;;;;;;;;;;;23.60;47.00;;;;;;4937460;28;44827;-63
2022/09/12 07:24:25;;;;;;;;;;;23.70;47.00;;;;;;4918449;28;45257;-59
2022/09/12 07:26:50;;;;;;;;;;;23.60;46.90;;;;;;4943635;28;45985;-61
2022/09/12 07:29:16;;;;;;;;;;;23.70;47.00;;;;;;4930108;28;44974;-62
2022/09/12 07:31:41;;;;;;;;;;;23.70;46.90;;;;;;4939148;28;45188;-63
2022/09/12 07:34:07;;;;;;;;;;;23.70;46.90;;;;;;4939526;28;45055;-61
2022/09/12 07:36:33;;;;;;;;;;;23.70;46.90;;;;;;4945478;28;45477;-63
2022/09/12 07:38:58;;;;;;;;;;;23.80;46.90;;;;;;4926792;28;45019;-62
2022/09/12 07:41:25;;;;;;;;;;;23.80;47.00;;;;;;4940576;28;44875;-62
2022/09/12 07:43:51;;;;;;;;;;;23.70;46.90;;;;;;4950305;28;44966;-63
2022/09/12 07:46:17;;;;;;;;;;;23.80;46.90;;;;;;4949954;28;45674;-62
2022/09/12 07:48:44;;;;;;;;;;;23.80;46.90;;;;;;4945920;28;45103;-61
2022/09/12 07:51:10;;;;;;;;;;;23.80;46.80;;;;;;4945832;28;45377;-62
2022/09/12 07:53:36;;;;;;;;;;;23.80;46.80;;;;;;4946194;28;45354;-62
2022/09/12 07:56:03;;;;;;;;;;;23.80;47.00;;;;;;4945339;28;45222;-63
2022/09/12 07:58:29;;;;;;;;;;;23.80;46.70;;;;;;4945103;28;44984;-61
2022/09/12 08:01:00;;;;;;;;;;;23.90;46.60;;;;;;4928307;28;45310;-62
2022/09/12 08:03:25;;;;;;;;;;;23.90;46.60;;;;;;4933192;28;45101;-62
2022/09/12 08:05:51;;;;;;;;;;;23.90;46.60;;;;;;4949772;28;46145;-63
2022/09/12 08:08:17;;;;;;;;;;;23.90;46.60;;;;;;4951831;28;44979;-63
2022/09/12 08:10:42;;;;;;;;;;;23.90;46.60;;;;;;4948902;28;44823;-63
2022/09/12 08:13:08;;;;;;;;;;;23.90;46.50;;;;;;4946997;28;45030;-63
2022/09/12 08:15:33;;;;;;;;;;;23.90;46.50;;;;;;4938932;28;46064;-63
2022/09/12 08:17:59;;;;;;;;;;;24.00;46.60;;;;;;4952692;28;45030;-63
2022/09/12 08:20:24;;;;;;;;;;;24.00;46.60;;;;;;4952559;28;45161;-62
2022/09/12 08:22:50;;;;;;;;;;;24.00;46.60;;;;;;4931705;28;44633;-62
2022/09/12 08:25:15;;;;;;;;;;;24.00;46.50;;;;;;4944649;28;46236;-63
2022/09/12 08:27:41;;;;;;;;;;;24.00;46.60;;;;;;4948209;28;44927;-63
2022/09/12 08:30:08;;;;;;;;;;;24.00;46.60;;;;;;4951740;28;45148;-63
2022/09/12 08:32:34;;;;;;;;;;;24.00;46.50;;;;;;4946548;28;44729;-61
2022/09/12 08:34:59;;;;;;;;;;;24.00;46.50;;;;;;4951164;28;46143;-62
2022/09/12 08:37:28;;;;;;;;;;;24.10;46.50;;;;;;4947926;28;45195;-61
2022/09/12 08:39:54;;;;;;;;;;;24.10;46.50;;;;;;4949006;28;45040;-62
2022/09/12 08:42:23;;;;;;;;;;;24.00;47.10;;;;;;4948878;28;45080;-62
2022/09/12 08:44:48;;;;;;;;;;;24.10;46.50;;;;;;4932267;28;46687;-63
2022/09/12 08:47:17;;;;;;;;;;;24.10;46.50;;;;;;4947294;28;45106;-63
2022/09/12 08:50:01;;;;;;;;;;;24.10;46.50;;;;;;4954486;28;45221;-63
2022/09/12 08:52:32;;;;;;;;;;;24.10;46.50;;;;;;4947484;28;45061;-63
2022/09/12 08:54:57;;;;;;;;;;;24.10;46.50;;;;;;4946364;28;45959;-62
2022/09/12 08:57:23;;;;;;;;;;;24.10;46.40;;;;;;4926509;28;44725;-62
2022/09/12 08:59:49;;;;;;;;;;;24.10;46.40;;;;;;4949926;28;45191;-62
2022/09/12 09:02:33;;;;;;;;;;;24.10;46.40;;;;;;4946621;28;45233;-62
2022/09/12 09:05:21;;;;;;;;;;;24.10;46.40;;;;;;4941982;28;46328;-61
2022/09/12 09:07:59;;;;;;;;;;;24.10;46.50;;;;;;4928954;28;45004;-62
2022/09/12 09:10:41;;;;;;;;;;;24.20;46.50;;;;;;4926324;28;45074;-62
2022/09/12 09:16:12;;;;;;;;;;;24.20;46.40;;;;;;4948018;28;45131;-63
2022/09/12 09:18:38;;;;;;;;;;;24.20;46.40;;;;;;4949241;28;45207;-61
2022/09/12 09:21:10;;;;;;;;;;;24.20;46.40;;;;;;4929688;28;45037;-62
2022/09/12 09:23:39;;;;;;;;;;;24.20;46.40;;;;;;4929266;28;45139;-61
2022/09/12 09:26:09;;;;;;;;;;;24.30;46.40;;;;;;4927785;28;46003;-62
2022/09/12 09:28:42;;;;;;;;;;;24.30;46.40;;;;;;4938890;28;45258;-62
2022/09/12 09:31:13;;;;;;;;;;;24.30;46.40;;;;;;4930140;28;45360;-62
2022/09/12 09:33:38;;;;;;;;;;;24.30;46.40;;;;;;4947312;28;44837;-60
2022/09/12 09:36:19;;;;;;;;;;;24.30;46.30;;;;;;4946481;28;45807;-62
2022/09/12 09:38:46;;;;;;;;;;;24.40;46.30;;;;;;4953545;28;46447;-62
2022/09/12 09:41:15;;;;;;;;;;;24.40;46.80;;;;;;4943642;28;44918;-62
2022/09/12 09:43:40;;;;;;;;;;;24.40;46.20;;;;;;4949129;28;45301;-62
2022/09/12 09:46:06;;;;;;;;;;;24.40;46.20;;;;;;4942213;28;45916;-63
2022/09/12 09:48:33;;;;;;;;;;;24.40;46.20;;;;;;4926533;28;45024;-62
2022/09/12 09:50:59;;;;;;;;;;;24.50;46.20;;;;;;4946313;28;45350;-61
2022/09/12 09:53:31;;;;;;;;;;;24.50;46.20;;;;;;4946021;28;45051;-60
2022/09/12 09:55:56;;;;;;;;;;;24.50;46.10;;;;;;4947189;28;46450;-62
2022/09/12 09:58:29;;;;;;;;;;;24.50;46.10;;;;;;4926379;28;45028;-61
2022/09/12 10:00:58;;;;;;;;;;;24.50;46.10;;;;;;4946431;28;44957;-61
2022/09/12 10:03:27;;;;;;;;;;;24.60;46.10;;;;;;4936335;28;45039;-62
2022/09/12 10:05:53;;;;;;;;;;;24.60;46.00;;;;;;4927308;28;45949;-62
2022/09/12 10:08:39;;;;;;;;;;;24.60;46.00;;;;;;4917488;28;45146;-62
2022/09/12 10:11:06;;;;;;;;;;;24.60;46.00;;;;;;4929396;28;44829;-62
2022/09/12 10:13:51;;;;;;;;;;;24.60;45.90;;;;;;4944137;28;44957;-61
2022/09/12 10:16:18;;;;;;;;;;;24.60;45.90;;;;;;4943355;28;45285;-61
2022/09/12 10:18:44;;;;;;;;;;;24.60;45.90;;;;;;4940313;28;44701;-61
2022/09/12 10:21:12;;;;;;;;;;;24.60;45.90;;;;;;4947857;28;45055;-62
2022/09/12 10:23:40;;;;;;;;;;;24.60;45.90;;;;;;4945401;28;45714;-61
2022/09/12 10:26:12;;;;;;;;;;;24.60;45.90;;;;;;4943252;28;46094;-63
2022/09/12 10:28:39;;;;;;;;;;;24.60;45.90;;;;;;4946524;28;44872;-62
2022/09/12 10:31:05;;;;;;;;;;;24.60;45.90;;;;;;4930957;28;44871;-62
2022/09/12 10:33:30;;;;;;;;;;;24.60;45.90;;;;;;4932059;28;44866;-62
2022/09/12 10:36:01;;;;;;;;;;;24.60;45.90;;;;;;4932414;28;45541;-62
2022/09/12 10:38:27;;;;;;;;;;;24.60;45.90;;;;;;4948817;28;45046;-62
2022/09/12 10:40:58;;;;;;;;;;;24.60;45.90;;;;;;4934819;28;45361;-62
2022/09/12 10:43:28;;;;;;;;;;;24.60;45.90;;;;;;4933160;28;44983;-62
2022/09/12 10:45:57;;;;;;;;;;;24.70;45.90;;;;;;4937082;28;45946;-62
2022/09/12 10:48:30;;;;;;;;;;;24.60;45.90;;;;;;4935144;28;45052;-62
2022/09/12 10:50:58;;;;;;;;;;;24.70;45.90;;;;;;4946107;28;45245;-62
2022/09/12 10:53:25;;;;;;;;;;;24.70;45.90;;;;;;4949951;28;45007;-62
2022/09/12 10:56:01;;;;;;;;;;;24.60;45.90;;;;;;4927156;28;45202;-62
2022/09/12 10:58:47;;;;;;;;;;;24.70;45.90;;;;;;4925049;28;45311;-62
2022/09/12 11:01:19;;;;;;;;;;;24.70;45.90;;;;;;4941933;28;45283;-60
2022/09/12 11:04:04;;;;;;;;;;;24.70;45.90;;;;;;4920689;28;46152;-61
2022/09/12 11:06:40;;;;;;;;;;;24.70;45.80;;;;;;4944457;28;45533;-61
2022/09/12 11:09:12;;;;;;;;;;;24.70;45.90;;;;;;4930789;28;44955;-62
2022/09/12 11:11:41;;;;;;;;;;;24.80;45.90;;;;;;4926224;28;44771;-62
2022/09/12 11:14:25;;;;;;;;;;;24.80;45.90;;;;;;4927087;28;45130;-61
2022/09/12 11:16:57;;;;;;;;;;;24.80;45.80;;;;;;4942640;28;45301;-61
2022/09/12 11:19:26;;;;;;;;;;;24.80;45.80;;;;;;4945981;28;45417;-60
2022/09/12 11:21:52;;;;;;;;;;;24.80;45.80;;;;;;4956434;28;44712;-60
2022/09/12 11:24:36;;;;;;;;;;;24.80;45.80;;;;;;4933591;28;45408;-59
2022/09/12 11:27:04;;;;;;;;;;;24.80;45.80;;;;;;4939576;28;45513;-63
2022/09/12 11:29:49;;;;;;;;;;;24.80;45.80;;;;;;4944372;28;44998;-60
2022/09/12 11:32:34;;;;;;;;;;;24.80;45.80;;;;;;4948857;28;44754;-61
2022/09/12 11:35:02;;;;;;;;;;;24.80;45.80;;;;;;4942365;28;45416;-60
2022/09/12 11:37:47;;;;;;;;;;;24.80;45.80;;;;;;4928585;28;47144;-62
2022/09/12 11:40:21;;;;;;;;;;;24.90;45.90;;;;;;4932150;28;45210;-62
2022/09/12 11:42:47;;;;;;;;;;;24.80;45.80;;;;;;4944613;28;45034;-62
2022/09/12 11:45:17;;;;;;;;;;;24.90;45.80;;;;;;4931291;28;44841;-62
2022/09/12 11:47:49;;;;;;;;;;;24.90;45.80;;;;;;4945843;28;45149;-62
2022/09/12 11:50:19;;;;;;;;;;;24.90;45.80;;;;;;4928033;28;45502;-63
2022/09/12 11:52:45;;;;;;;;;;;24.90;45.80;;;;;;4935209;28;44720;-61
2022/09/12 11:55:15;;;;;;;;;;;24.90;45.80;;;;;;4930181;28;44841;-62
2022/09/12 11:57:47;;;;;;;;;;;24.90;45.70;;;;;;4930771;28;46460;-62
2022/09/12 12:00:16;;;;;;;;;;;25.00;45.80;;;;;;4944916;28;45327;-63
2022/09/12 12:03:14;;;;;;;;;;;25.00;45.80;;;;;;4935698;28;45199;-62
2022/09/12 12:06:00;;;;;;;;;;;25.00;45.80;;;;;;4928961;28;44942;-61
2022/09/12 12:08:26;;;;;;;;;;;25.00;45.80;;;;;;4938428;28;46548;-61
2022/09/12 12:10:55;;;;;;;;;;;25.00;45.70;;;;;;4926472;28;44945;-61
2022/09/12 12:13:29;;;;;;;;;;;25.00;45.70;;;;;;4947933;28;44995;-61
2022/09/12 12:15:58;;;;;;;;;;;25.00;45.70;;;;;;4948413;28;44926;-62
2022/09/12 12:18:24;;;;;;;;;;;25.00;45.80;;;;;;4941418;28;46232;-61
2022/09/12 12:20:50;;;;;;;;;;;25.10;45.70;;;;;;4949539;28;44652;-61
2022/09/12 12:23:25;;;;;;;;;;;25.10;45.70;;;;;;4930103;28;44598;-63
2022/09/12 12:25:51;;;;;;;;;;;25.10;45.70;;;;;;4945695;28;45665;-61
2022/09/12 12:28:36;;;;;;;;;;;25.10;45.70;;;;;;4940718;28;46197;-62
2022/09/12 12:31:02;;;;;;;;;;;25.10;45.70;;;;;;4945155;28;44768;-62
2022/09/12 12:33:27;;;;;;;;;;;25.10;45.70;;;;;;4924161;28;45004;-64
2022/09/12 12:35:58;;;;;;;;;;;25.20;46.30;;;;;;4940661;28;45213;-62
2022/09/12 12:38:33;;;;;;;;;;;25.20;45.60;;;;;;4943484;28;45648;-62
2022/09/12 12:41:17;;;;;;;;;;;25.20;45.60;;;;;;4931949;28;45008;-62
2022/09/12 12:43:43;;;;;;;;;;;25.20;45.70;;;;;;4948180;28;45075;-62
2022/09/12 12:46:09;;;;;;;;;;;25.20;45.70;;;;;;4949061;28;44900;-62
2022/09/12 12:48:42;;;;;;;;;;;25.20;45.60;;;;;;4923764;28;45467;-61
2022/09/12 12:51:26;;;;;;;;;;;25.20;45.60;;;;;;4930736;28;45133;-62
2022/09/12 12:53:52;;;;;;;;;;;25.20;45.60;;;;;;4945984;28;44774;-62
2022/09/12 12:56:25;;;;;;;;;;;25.30;45.70;;;;;;4924791;28;45001;-63
2022/09/12 12:58:55;;;;;;;;;;;25.30;45.60;;;;;;4931378;28;45466;-63
2022/09/12 13:01:21;;;;;;;;;;;25.30;45.60;;;;;;4942688;28;45050;-61
2022/09/12 13:03:56;;;;;;;;;;;25.30;45.60;;;;;;4945671;28;44982;-61
2022/09/12 13:06:31;;;;;;;;;;;25.30;45.60;;;;;;4949596;28;45062;-60
2022/09/12 13:09:20;;;;;;;;;;;25.30;45.60;;;;;;4945905;28;45011;-61
2022/09/12 13:11:45;;;;;;;;;;;25.30;45.60;;;;;;4937153;28;45016;-62
2022/09/12 13:14:30;;;;;;;;;;;25.30;45.50;;;;;;4931937;28;44886;-62
2022/09/12 13:16:57;;;;;;;;;;;25.40;45.60;;;;;;4950690;28;44952;-62
2022/09/12 13:19:29;;;;;;;;;;;25.40;45.50;;;;;;4931799;28;45199;-61
2022/09/12 13:21:55;;;;;;;;;;;25.40;45.50;;;;;;4931502;28;44969;-62
2022/09/12 13:24:21;;;;;;;;;;;25.40;45.50;;;;;;4935752;28;44910;-62
2022/09/12 13:26:46;;;;;;;;;;;25.40;45.60;;;;;;4947517;28;45181;-62
2022/09/12 13:29:16;;;;;;;;;;;25.40;45.50;;;;;;4953670;28;45926;-62
2022/09/12 13:31:41;;;;;;;;;;;25.40;45.50;;;;;;4946386;28;45203;-61
2022/09/12 13:34:08;;;;;;;;;;;25.40;45.50;;;;;;4946810;28;44710;-61
2022/09/12 13:36:49;;;;;;;;;;;25.40;45.50;;;;;;4953747;28;45177;-62
2022/09/12 13:39:27;;;;;;;;;;;25.40;45.50;;;;;;4949642;28;45972;-61
2022/09/12 13:42:11;;;;;;;;;;;25.40;45.50;;;;;;4945898;28;45181;-62
2022/09/12 13:44:40;;;;;;;;;;;25.40;45.50;;;;;;4947538;28;45092;-62
2022/09/12 13:47:06;;;;;;;;;;;25.40;45.50;;;;;;4931646;28;44836;-62
2022/09/12 13:49:33;;;;;;;;;;;25.40;45.50;;;;;;4934149;28;45159;-62
2022/09/12 13:52:02;;;;;;;;;;;25.40;45.50;;;;;;4935998;28;44956;-61
2022/09/12 13:54:28;;;;;;;;;;;25.50;45.60;;;;;;4952455;28;44935;-62
2022/09/12 13:56:53;;;;;;;;;;;25.50;45.50;;;;;;4929305;28;44786;-61
2022/09/12 13:59:19;;;;;;;;;;;25.50;45.60;;;;;;4926477;28;45667;-62
2022/09/12 14:01:45;;;;;;;;;;;25.50;45.60;;;;;;4948620;28;45269;-62
2022/09/12 14:07:01;;;;;;;;;;;25.50;45.60;;;;;;4951597;28;44775;-61
2022/09/12 14:09:31;;;;;;;;;;;25.50;45.60;;;;;;4949870;28;46427;-61
2022/09/12 14:11:56;;;;;;;;;;;25.50;45.60;;;;;;4936517;28;45029;-62
2022/09/12 14:14:35;;;;;;;;;;;25.50;45.60;;;;;;4944205;28;45815;-62
2022/09/12 14:17:14;;;;;;;;;;;25.50;45.60;;;;;;4936589;28;44833;-61
2022/09/12 14:19:39;;;;;;;;;;;25.50;45.60;;;;;;4948272;28;46067;-61
2022/09/12 14:22:07;;;;;;;;;;;25.50;45.60;;;;;;4951506;28;45338;-62
2022/09/12 14:24:32;;;;;;;;;;;25.50;45.70;;;;;;4934563;28;45935;-62
2022/09/12 14:26:58;;;;;;;;;;;25.50;45.70;;;;;;4951531;28;45011;-63
2022/09/12 14:29:24;;;;;;;;;;;25.60;45.70;;;;;;4929664;28;47098;-63
2022/09/12 14:32:00;;;;;;;;;;;25.60;45.80;;;;;;4929560;28;44902;-63
2022/09/12 14:34:25;;;;;;;;;;;25.50;45.80;;;;;;4943673;28;44662;-63
2022/09/12 14:36:51;;;;;;;;;;;25.50;45.70;;;;;;4949655;28;45060;-63
2022/09/12 14:39:18;;;;;;;;;;;25.60;45.80;;;;;;4946989;28;45845;-63
2022/09/12 14:41:45;;;;;;;;;;;25.60;45.80;;;;;;4932215;28;45135;-62
2022/09/12 14:44:15;;;;;;;;;;;25.60;45.80;;;;;;4949808;28;44984;-62
2022/09/12 14:46:41;;;;;;;;;;;25.60;45.80;;;;;;4930891;28;44923;-61
2022/09/12 14:49:14;;;;;;;;;;;25.60;45.80;;;;;;4915724;28;46014;-64
2022/09/12 14:51:42;;;;;;;;;;;25.60;45.80;;;;;;4948257;28;45208;-64
2022/09/12 14:54:26;;;;;;;;;;;25.60;45.80;;;;;;4931001;28;45270;-63
2022/09/12 14:57:12;;;;;;;;;;;25.60;45.80;;;;;;4951978;28;44763;-64
2022/09/12 14:59:38;;;;;;;;;;;25.70;45.90;;;;;;4935110;28;45762;-65
2022/09/12 15:02:19;;;;;;;;;;;25.70;45.90;;;;;;4948263;28;44802;-64
2022/09/12 15:04:46;;;;;;;;;;;25.70;46.00;;;;;;4947163;28;45194;-66
2022/09/12 15:07:13;;;;;;;;;;;25.70;45.90;;;;;;4945399;28;44957;-63
2022/09/12 15:09:39;;;;;;;;;;;25.60;45.90;;;;;;4932510;28;45167;-64
2022/09/12 15:12:04;;;;;;;;;;;25.60;45.90;;;;;;4944709;28;44893;-64
2022/09/12 15:14:30;;;;;;;;;;;25.70;45.90;;;;;;4934316;28;44936;-63
2022/09/12 15:16:55;;;;;;;;;;;25.60;45.80;;;;;;4947913;28;45973;-64
2022/09/12 15:19:21;;;;;;;;;;;25.60;45.80;;;;;;4945446;28;44970;-63
2022/09/12 15:21:46;;;;;;;;;;;25.60;45.80;;;;;;4936256;28;44998;-64
2022/09/12 15:24:12;;;;;;;;;;;25.60;45.80;;;;;;4927696;28;44981;-66
2022/09/12 15:26:37;;;;;;;;;;;25.60;45.90;;;;;;4940699;28;45033;-63
2022/09/12 15:29:03;;;;;;;;;;;25.60;45.80;;;;;;4946053;28;45818;-65
2022/09/12 15:31:29;;;;;;;;;;;25.60;45.80;;;;;;4944945;28;45070;-66
2022/09/12 15:33:55;;;;;;;;;;;25.60;45.90;;;;;;4930627;28;45035;-65
2022/09/12 15:36:21;;;;;;;;;;;25.60;45.80;;;;;;4937312;28;45295;-65
2022/09/12 15:38:47;;;;;;;;;;;25.60;45.80;;;;;;4933099;28;45918;-64
2022/09/12 15:41:17;;;;;;;;;;;25.60;45.80;;;;;;4949151;28;45108;-65
2022/09/12 15:43:43;;;;;;;;;;;25.50;45.80;;;;;;4950903;28;44705;-63
2022/09/12 15:46:10;;;;;;;;;;;25.50;45.80;;;;;;4944301;28;44997;-64
2022/09/12 15:48:36;;;;;;;;;;;25.50;45.80;;;;;;4943512;28;44996;-64
2022/09/12 15:51:03;;;;;;;;;;;25.60;45.80;;;;;;4944583;28;45369;-64
2022/09/12 15:53:28;;;;;;;;;;;25.60;45.80;;;;;;4923453;28;47019;-64
2022/09/12 15:55:54;;;;;;;;;;;25.50;45.80;;;;;;4940660;28;45416;-65
2022/09/12 15:58:19;;;;;;;;;;;25.50;45.80;;;;;;4937370;28;46413;-66
2022/09/12 16:00:45;;;;;;;;;;;25.50;45.80;;;;;;4938982;28;44754;-65
2022/09/12 16:03:21;;;;;;;;;;;25.50;45.80;;;;;;4924427;28;44783;-65
2022/09/12 16:05:46;;;;;;;;;;;25.50;45.80;;;;;;4923019;28;44691;-65
2022/09/12 16:08:12;;;;;;;;;;;25.50;45.80;;;;;;4927671;28;46370;-65
2022/09/12 16:10:37;;;;;;;;;;;25.50;45.80;;;;;;4939997;28;45302;-63
2022/09/12 16:13:03;;;;;;;;;;;25.50;45.80;;;;;;4922719;28;45279;-65
2022/09/12 16:15:28;;;;;;;;;;;25.50;45.80;;;;;;4922836;28;45080;-64
2022/09/12 16:17:54;;;;;;;;;;;25.50;45.80;;;;;;4941270;28;44953;-64
2022/09/12 16:20:20;;;;;;;;;;;25.50;45.80;;;;;;4936643;28;45100;-65
2022/09/12 16:22:46;;;;;;;;;;;25.50;45.80;;;;;;4929567;28;45181;-65
2022/09/12 16:25:11;;;;;;;;;;;25.50;45.80;;;;;;4924398;28;44746;-64
2022/09/12 16:27:37;;;;;;;;;;;25.50;45.80;;;;;;4925661;28;45829;-65
2022/09/12 16:30:03;;;;;;;;;;;25.50;45.80;;;;;;4945481;28;44813;-64
2022/09/12 16:32:28;;;;;;;;;;;25.50;45.80;;;;;;4941926;28;45049;-64
2022/09/12 16:34:54;;;;;;;;;;;25.50;45.80;;;;;;4941808;28;45021;-64
2022/09/12 16:37:19;;;;;;;;;;;25.50;45.80;;;;;;4928029;28;46342;-65
2022/09/12 16:39:45;;;;;;;;;;;25.50;45.80;;;;;;4946732;28;44804;-64
2022/09/12 16:42:11;;;;;;;;;;;25.40;45.70;;;;;;4943900;28;45018;-65
2022/09/12 16:44:36;;;;;;;;;;;25.40;45.80;;;;;;4941286;28;45686;-66
2022/09/12 16:47:02;;;;;;;;;;;25.40;45.80;;;;;;4940236;28;46255;-65
2022/09/12 16:49:27;;;;;;;;;;;25.40;45.80;;;;;;4927253;28;45161;-63
2022/09/12 16:51:53;;;;;;;;;;;25.40;45.80;;;;;;4941802;28;45040;-65
2022/09/12 16:54:18;;;;;;;;;;;25.40;45.80;;;;;;4944185;28;46294;-65
2022/09/12 16:56:44;;;;;;;;;;;25.40;45.80;;;;;;4941978;28;45282;-64
2022/09/12 16:59:12;;;;;;;;;;;25.40;45.90;;;;;;4943095;28;45817;-64
2022/09/12 17:01:38;;;;;;;;;;;25.40;45.90;;;;;;4944287;28;45011;-64
2022/09/12 17:04:03;;;;;;;;;;;25.40;45.90;;;;;;4928720;28;45036;-65
2022/09/12 17:06:29;;;;;;;;;;;25.40;45.90;;;;;;4946628;28;45880;-64
2022/09/12 17:08:56;;;;;;;;;;;25.30;45.80;;;;;;4948292;28;45044;-63
2022/09/12 17:11:23;;;;;;;;;;;25.30;45.80;;;;;;4943093;28;46066;-65
2022/09/12 17:13:49;;;;;;;;;;;25.30;45.90;;;;;;4949146;28;44770;-65
2022/09/12 17:16:14;;;;;;;;;;;25.30;46.00;;;;;;4947826;28;45144;-64
2022/09/12 17:18:40;;;;;;;;;;;25.30;46.00;;;;;;4944890;28;44626;-65
2022/09/12 17:21:06;;;;;;;;;;;25.20;45.80;;;;;;4944387;28;44773;-67
2022/09/12 17:23:31;;;;;;;;;;;25.20;46.00;;;;;;4929289;28;45004;-65
2022/09/12 17:25:57;;;;;;;;;;;25.20;46.00;;;;;;4941255;28;45577;-65
2022/09/12 17:28:22;;;;;;;;;;;25.20;46.00;;;;;;4941184;28;45130;-65
2022/09/12 17:30:53;;;;;;;;;;;25.20;46.00;;;;;;4941773;28;45174;-64